createdAt,value
2023-02-04T00:00:22.155Z,98279.66
2023-02-04T00:02:50.005Z,98263.84
2023-02-04T00:05:18.424Z,98272.22
2023-02-04T00:07:45.568Z,98271.28
2023-02-04T00:10:12.619Z,98269.81
2023-02-04T00:12:39.950Z,98274.22
2023-02-04T00:15:07.876Z,98254.91
2023-02-04T00:17:34.820Z,98258.88
2023-02-04T00:20:02.118Z,98252.25
2023-02-04T00:22:29.509Z,98258.34
2023-02-04T00:24:56.937Z,98258.25
2023-02-04T00:27:26.138Z,98254.47
2023-02-04T00:29:53.546Z,98246.75
2023-02-04T00:32:20.810Z,98242.88
2023-02-04T00:34:47.983Z,98232.72
2023-02-04T00:37:15.404Z,98243.06
2023-02-04T00:39:42.645Z,98246.44
2023-02-04T00:42:09.907Z,98238.47
2023-02-04T00:44:37.251Z,98230.72
2023-02-04T00:47:05.770Z,98241.88
2023-02-04T00:49:34.735Z,98245.94
2023-02-04T00:52:02.453Z,98244.91
2023-02-04T00:54:29.610Z,98240.78
2023-02-04T00:56:56.620Z,98237.97
2023-02-04T00:59:24.227Z,98229.44
2023-02-04T01:01:51.948Z,98233.59
2023-02-04T01:04:19.011Z,98233.63
2023-02-04T01:06:46.158Z,98232.50
2023-02-04T01:09:13.146Z,98230.47
2023-02-04T01:11:40.149Z,98239.41
2023-02-04T01:14:07.137Z,98224.38
2023-02-04T01:16:34.233Z,98215.50
2023-02-04T01:19:01.223Z,98219.06
2023-02-04T01:21:28.261Z,98215.31
2023-02-04T01:23:55.433Z,98203.16
2023-02-04T01:26:22.815Z,98209.44
2023-02-04T01:28:50.110Z,98206.63
2023-02-04T01:31:17.706Z,98213.88
2023-02-04T01:33:44.800Z,98205.03
2023-02-04T01:36:12.179Z,98198.09
2023-02-04T01:38:39.184Z,98186.84
2023-02-04T01:41:06.626Z,98181.75
2023-02-04T01:43:34.360Z,98188.41
2023-02-04T01:46:02.898Z,98187.34
2023-02-04T01:48:30.648Z,98182.84
2023-02-04T01:51:06.394Z,98190.13
2023-02-04T01:53:34.303Z,98179.44
2023-02-04T01:56:01.971Z,98182.53
2023-02-04T01:58:32.524Z,98176.88
2023-02-04T02:00:59.754Z,98175.78
2023-02-04T02:03:26.755Z,98161.38
2023-02-04T02:05:55.878Z,98144.03
2023-02-04T02:08:26.166Z,98149.81
2023-02-04T02:10:53.275Z,98156.00
2023-02-04T02:13:20.480Z,98142.63
2023-02-04T02:15:48.338Z,98143.59
2023-02-04T02:18:17.736Z,98137.78
2023-02-04T02:20:45.596Z,98129.66
2023-02-04T02:23:32.458Z,98145.44
2023-02-04T02:25:59.478Z,98150.91
2023-02-04T02:28:26.528Z,98143.09
2023-02-04T02:30:53.677Z,98125.47
2023-02-04T02:33:21.695Z,98119.28
2023-02-04T02:35:50.096Z,98107.69
2023-02-04T02:38:18.950Z,98103.59
2023-02-04T02:40:47.167Z,98109.22
2023-02-04T02:43:18.422Z,98109.06
2023-02-04T02:45:46.148Z,98095.94
2023-02-04T02:48:13.378Z,98085.47
2023-02-04T02:50:42.178Z,98093.16
2023-02-04T02:53:15.187Z,98077.69
2023-02-04T02:55:43.434Z,98066.38
2023-02-04T02:58:18.735Z,98074.69
2023-02-04T03:00:46.019Z,98078.94
2023-02-04T03:03:27.506Z,98078.75
2023-02-04T03:06:03.411Z,98090.25
2023-02-04T03:08:31.100Z,98086.50
2023-02-04T03:10:58.118Z,98079.00
2023-02-04T03:13:26.229Z,98071.28
2023-02-04T03:15:54.105Z,98060.25
2023-02-04T03:18:21.870Z,98064.38
2023-02-04T03:20:51.712Z,98054.09
2023-02-04T03:23:20.833Z,98054.56
2023-02-04T03:25:50.057Z,98054.94
2023-02-04T03:28:18.054Z,98050.13
2023-02-04T03:30:54.087Z,98048.47
2023-02-04T03:33:21.222Z,98042.38
2023-02-04T03:35:49.037Z,98027.06
2023-02-04T03:38:15.958Z,98037.38
2023-02-04T03:40:43.342Z,98032.66
2023-02-04T03:43:10.526Z,98024.56
2023-02-04T03:45:45.254Z,98014.31
2023-02-04T03:48:13.262Z,98014.59
2023-02-04T03:50:40.693Z,98023.34
2023-02-04T03:53:08.048Z,98017.34
2023-02-04T03:55:36.565Z,98013.72
2023-02-04T03:58:04.619Z,98019.84
2023-02-04T04:00:34.062Z,98013.41
2023-02-04T04:03:01.200Z,98007.13
2023-02-04T04:05:28.873Z,98022.34
2023-02-04T04:07:56.099Z,98015.38
2023-02-04T04:10:25.758Z,98021.06
2023-02-04T04:12:52.726Z,98012.19
2023-02-04T04:15:19.709Z,98004.91
2023-02-04T04:17:46.757Z,98009.66
2023-02-04T04:20:13.891Z,98007.91
2023-02-04T04:22:40.925Z,98008.81
2023-02-04T04:25:08.821Z,98021.72
2023-02-04T04:27:36.119Z,98036.84
2023-02-04T04:30:04.768Z,98052.53
2023-02-04T04:32:32.536Z,98058.84
2023-02-04T04:34:59.782Z,98065.13
2023-02-04T04:37:26.914Z,98083.53
2023-02-04T04:39:54.415Z,98084.31
2023-02-04T04:42:21.666Z,98076.09
2023-02-04T04:44:49.289Z,98076.53
2023-02-04T04:47:16.485Z,98088.16
2023-02-04T04:49:43.486Z,98075.13
2023-02-04T04:52:11.019Z,98076.25
2023-02-04T04:54:38.109Z,98064.06
2023-02-04T04:57:05.131Z,98062.59
2023-02-04T04:59:32.139Z,98076.50
2023-02-04T05:01:59.106Z,98086.81
2023-02-04T05:04:26.198Z,98080.47
2023-02-04T05:06:53.181Z,98089.00
2023-02-04T05:09:20.231Z,98090.81
2023-02-04T05:11:48.101Z,98104.06
2023-02-04T05:14:15.068Z,98102.50
2023-02-04T05:16:42.123Z,98097.97
2023-02-04T05:19:09.407Z,98097.53
2023-02-04T05:21:36.388Z,98127.09
2023-02-04T05:24:03.464Z,98109.00
2023-02-04T05:26:31.398Z,98108.41
2023-02-04T05:29:00.752Z,98103.50
2023-02-04T05:31:28.438Z,98099.78
2023-02-04T05:33:55.537Z,98093.22
2023-02-04T05:36:22.579Z,98100.47
2023-02-04T05:38:49.766Z,98119.41
2023-02-04T05:41:16.810Z,98119.16
2023-02-04T05:43:44.007Z,98110.41
2023-02-04T05:46:11.264Z,98109.44
2023-02-04T05:48:40.436Z,98101.78
2023-02-04T05:51:07.757Z,98108.41
2023-02-04T05:53:34.993Z,98124.25
2023-02-04T05:56:04.688Z,98111.47
2023-02-04T05:58:33.921Z,98094.94
2023-02-04T06:01:02.133Z,98113.44
2023-02-04T06:03:30.813Z,98109.38
2023-02-04T06:05:58.538Z,98100.94
2023-02-04T06:08:25.665Z,98095.72
2023-02-04T06:10:52.601Z,98072.75
2023-02-04T06:13:20.048Z,98074.06
2023-02-04T06:15:47.044Z,98050.44
2023-02-04T06:18:14.736Z,98079.38
2023-02-04T06:20:42.317Z,98086.81
2023-02-04T06:23:09.684Z,98072.59
2023-02-04T06:25:36.929Z,98084.78
2023-02-04T06:28:04.716Z,98074.63
2023-02-04T06:30:32.339Z,98084.16
2023-02-04T06:32:59.767Z,98074.22
2023-02-04T06:35:26.949Z,98066.25
2023-02-04T06:37:54.100Z,98063.69
2023-02-04T06:40:21.455Z,98062.41
2023-02-04T06:42:48.977Z,98061.97
2023-02-04T06:45:16.370Z,98071.09
2023-02-04T06:47:43.361Z,98059.63
2023-02-04T06:50:10.825Z,98055.53
2023-02-04T06:52:37.967Z,98062.09
2023-02-04T06:55:05.225Z,98062.41
2023-02-04T06:57:32.195Z,98053.94
2023-02-04T06:59:59.234Z,98056.41
2023-02-04T07:02:26.401Z,98051.06
2023-02-04T07:04:53.443Z,98040.38
2023-02-04T07:07:23.448Z,98047.09
2023-02-04T07:09:50.458Z,98034.00
2023-02-04T07:12:17.391Z,98047.31
2023-02-04T07:14:44.405Z,98040.91
2023-02-04T07:17:13.556Z,98049.91
2023-02-04T07:19:40.517Z,98052.47
2023-02-04T07:22:07.489Z,98040.09
2023-02-04T07:24:38.501Z,98026.69
2023-02-04T07:27:07.943Z,98030.09
2023-02-04T07:29:35.007Z,98024.97
2023-02-04T07:32:02.236Z,98019.00
2023-02-04T07:34:29.272Z,98006.97
2023-02-04T07:36:56.993Z,97999.88
2023-02-04T07:39:23.980Z,98001.31
2023-02-04T07:41:51.113Z,97997.63
2023-02-04T07:44:23.454Z,97979.53
2023-02-04T07:46:50.521Z,97979.00
2023-02-04T07:49:17.494Z,97980.59
2023-02-04T07:51:44.566Z,97973.03
2023-02-04T07:54:13.668Z,97973.38
2023-02-04T07:56:41.325Z,97959.34
2023-02-04T07:59:08.323Z,97963.75
2023-02-04T08:01:35.383Z,97968.63
2023-02-04T08:04:02.511Z,97958.91
2023-02-04T08:06:29.716Z,97948.06
2023-02-04T08:08:57.070Z,97965.75
2023-02-04T08:11:24.464Z,97959.25
2023-02-04T08:13:51.436Z,97954.75
2023-02-04T08:16:21.158Z,97954.84
2023-02-04T08:18:50.500Z,97944.19
2023-02-04T08:21:19.482Z,97940.72
2023-02-04T08:23:46.758Z,97946.59
2023-02-04T08:26:13.966Z,97949.47
2023-02-04T08:28:41.046Z,97942.28
2023-02-04T08:31:12.422Z,97945.09
2023-02-04T08:33:40.296Z,97961.25
2023-02-04T08:36:10.056Z,97948.56
2023-02-04T08:38:37.675Z,97936.66
2023-02-04T08:41:05.009Z,97941.50
2023-02-04T08:43:32.099Z,97948.81
2023-02-04T08:45:59.110Z,97948.06
2023-02-04T08:48:26.481Z,97948.81
2023-02-04T08:50:53.425Z,97958.50
2023-02-04T08:53:20.635Z,97958.28
2023-02-04T08:55:47.877Z,97957.34
2023-02-04T08:58:17.305Z,97968.00
2023-02-04T09:00:44.716Z,97978.03
2023-02-04T09:03:11.996Z,97972.00
2023-02-04T09:05:39.218Z,97963.47
2023-02-04T09:08:06.488Z,98005.34
2023-02-04T09:10:33.918Z,97946.28
2023-02-04T09:13:03.972Z,97963.41
2023-02-04T09:15:33.429Z,97959.59
2023-02-04T09:18:11.741Z,97967.91
2023-02-04T09:20:39.462Z,97965.31
2023-02-04T09:23:09.261Z,97969.22
2023-02-04T09:25:36.494Z,97952.50
2023-02-04T09:28:03.494Z,97940.25
2023-02-04T09:30:30.950Z,97960.22
2023-02-04T09:32:58.235Z,97956.25
2023-02-04T09:35:32.728Z,97962.78
2023-02-04T09:38:02.460Z,97964.94
2023-02-04T09:40:34.879Z,97953.00
2023-02-04T09:43:06.456Z,97948.50
2023-02-04T09:45:36.321Z,97952.91
2023-02-04T09:48:05.810Z,97961.63
2023-02-04T09:50:34.288Z,97941.56
2023-02-04T09:53:05.564Z,97941.81
2023-02-04T09:55:35.941Z,97953.81
2023-02-04T09:58:03.417Z,97940.97
2023-02-04T10:00:32.084Z,97937.31
2023-02-04T10:03:02.627Z,97928.44
2023-02-04T10:05:31.061Z,97926.69
2023-02-04T10:07:59.334Z,97937.06
2023-02-04T10:10:27.953Z,97922.28
2023-02-04T10:12:58.734Z,97927.38
2023-02-04T10:15:26.296Z,97932.97
2023-02-04T10:17:58.949Z,97939.06
2023-02-04T10:20:26.347Z,97932.59
2023-02-04T10:22:56.426Z,97928.03
2023-02-04T10:25:24.983Z,97927.31
2023-02-04T10:27:57.850Z,97905.69
2023-02-04T10:30:28.109Z,97898.56
2023-02-04T10:32:55.170Z,97909.38
2023-02-04T10:35:22.931Z,97911.56
2023-02-04T10:38:04.006Z,97912.69
2023-02-04T10:40:34.071Z,97910.94
2023-02-04T10:43:10.383Z,97899.97
2023-02-04T10:45:38.157Z,97887.81
2023-02-04T10:48:05.830Z,97882.25
2023-02-04T10:50:33.332Z,97891.84
2023-02-04T10:53:20.223Z,97886.31
2023-02-04T10:55:49.114Z,97890.34
2023-02-04T10:58:21.227Z,97880.34
2023-02-04T11:00:48.293Z,97879.69
2023-02-04T11:03:27.129Z,97865.41
2023-02-04T11:05:58.278Z,97866.16
2023-02-04T11:08:34.158Z,97850.88
2023-02-04T11:11:21.391Z,97851.31
2023-02-04T11:13:51.253Z,97855.78
2023-02-04T11:16:18.328Z,97841.59
2023-02-04T11:18:57.541Z,97847.56
2023-02-04T11:21:24.591Z,97847.44
2023-02-04T11:24:03.062Z,97841.63
2023-02-04T11:26:36.664Z,97829.09
2023-02-04T11:29:03.675Z,97834.44
2023-02-04T11:31:44.486Z,97826.88
2023-02-04T11:34:24.303Z,97815.84
2023-02-04T11:37:08.368Z,97810.09
2023-02-04T11:39:39.694Z,97806.41
2023-02-04T11:42:19.997Z,97810.13
2023-02-04T11:44:56.583Z,97801.91
2023-02-04T11:47:26.860Z,97811.28
2023-02-04T11:50:02.170Z,97805.06
2023-02-04T11:52:29.566Z,97833.63
2023-02-04T11:54:59.770Z,97815.78
2023-02-04T11:57:29.039Z,97811.25
2023-02-04T11:59:56.100Z,97813.47
2023-02-04T12:02:28.562Z,97838.38
2023-02-04T12:05:13.795Z,97807.44
2023-02-04T12:07:40.946Z,97792.00
2023-02-04T12:10:34.026Z,97800.72
2023-02-04T12:13:02.354Z,97825.19
2023-02-04T12:15:37.547Z,97816.66
2023-02-04T12:18:09.677Z,97876.41
2023-02-04T12:20:37.525Z,97869.44
2023-02-04T12:23:05.405Z,97856.00
2023-02-04T12:25:35.504Z,97850.56
2023-02-04T12:28:02.595Z,97844.66
2023-02-04T12:30:30.305Z,97828.44
2023-02-04T12:32:57.363Z,97824.31
2023-02-04T12:35:24.706Z,97816.44
2023-02-04T12:37:52.059Z,97813.75
2023-02-04T12:40:21.475Z,97808.03
2023-02-04T12:42:48.899Z,97800.50
2023-02-04T12:45:17.427Z,97803.31
2023-02-04T12:47:45.314Z,97821.22
2023-02-04T12:50:16.112Z,97808.84
2023-02-04T12:52:59.379Z,97798.59
2023-02-04T12:55:28.459Z,97795.88
2023-02-04T12:57:57.730Z,97794.19
2023-02-04T13:00:27.853Z,97790.59
2023-02-04T13:02:59.313Z,97793.03
2023-02-04T13:05:27.293Z,97788.41
2023-02-04T13:07:56.655Z,97817.34
2023-02-04T13:10:24.279Z,97840.38
2023-02-04T13:12:51.831Z,97799.06
2023-02-04T13:15:19.126Z,97787.47
2023-02-04T13:17:46.091Z,97796.66
2023-02-04T13:20:15.334Z,97799.38
2023-02-04T13:22:42.349Z,97799.38
2023-02-04T13:25:11.769Z,97788.50
2023-02-04T13:27:39.463Z,97778.00
2023-02-04T13:30:08.647Z,97786.22
2023-02-04T13:32:35.649Z,97786.47
2023-02-04T13:35:02.736Z,97794.03
2023-02-04T13:37:29.701Z,97815.31
2023-02-04T13:39:56.767Z,97929.22
2023-02-04T13:42:23.827Z,97927.19
2023-02-04T13:44:50.882Z,97997.44
2023-02-04T13:47:17.972Z,97982.22
2023-02-04T13:49:44.998Z,98005.59
2023-02-04T13:52:12.196Z,97991.88
2023-02-04T13:54:39.199Z,97981.44
2023-02-04T13:57:06.437Z,97970.88
2023-02-04T13:59:33.449Z,97960.72
2023-02-04T14:02:00.558Z,97952.16
2023-02-04T14:04:27.521Z,97948.00
2023-02-04T14:06:55.661Z,97944.66
2023-02-04T14:09:23.124Z,97947.22
2023-02-04T14:11:50.140Z,97974.44
2023-02-04T14:14:17.384Z,97942.34
2023-02-04T14:16:44.492Z,97926.56
2023-02-04T14:19:11.539Z,97948.00
2023-02-04T14:21:38.562Z,97938.84
2023-02-04T14:24:08.136Z,97943.41
2023-02-04T14:26:35.162Z,97966.41
2023-02-04T14:29:04.961Z,97947.78
2023-02-04T14:31:31.933Z,97943.78
2023-02-04T14:33:59.503Z,97965.47
2023-02-04T14:36:26.878Z,97964.63
2023-02-04T14:38:53.967Z,97941.66
2023-02-04T14:41:21.650Z,97953.56
2023-02-04T14:43:48.796Z,97948.06
2023-02-04T14:46:15.833Z,97957.66
2023-02-04T14:48:42.928Z,97933.50
2023-02-04T14:51:10.010Z,97954.25
2023-02-04T14:53:37.201Z,97951.41
2023-02-04T14:56:04.800Z,97952.56
2023-02-04T14:58:33.909Z,97959.56
2023-02-04T15:01:01.184Z,97963.56
2023-02-04T15:03:28.161Z,97971.16
2023-02-04T15:05:55.195Z,97944.72
2023-02-04T15:08:22.344Z,97969.13
2023-02-04T15:10:49.475Z,98002.22
2023-02-04T15:13:16.686Z,97977.31
2023-02-04T15:15:43.725Z,97993.53
2023-02-04T15:18:11.013Z,98002.69
2023-02-04T15:20:40.480Z,97992.00
2023-02-04T15:23:07.533Z,98000.66
2023-02-04T15:25:36.664Z,97998.41
2023-02-04T15:28:03.777Z,98016.81
2023-02-04T15:30:31.085Z,98008.63
2023-02-04T15:32:58.284Z,98006.38
2023-02-04T15:35:25.373Z,98048.72
2023-02-04T15:37:52.343Z,98029.72
2023-02-04T15:40:19.587Z,98046.38
2023-02-04T15:42:48.859Z,98072.41
2023-02-04T15:45:16.433Z,98061.63
2023-02-04T15:47:43.562Z,98078.75
2023-02-04T15:50:11.247Z,98112.69
2023-02-04T15:52:38.357Z,98105.66
2023-02-04T15:55:05.614Z,98085.44
2023-02-04T15:57:32.655Z,98095.75
2023-02-04T15:59:59.727Z,98079.16
2023-02-04T16:02:26.867Z,98090.84
2023-02-04T16:04:53.922Z,98098.53
2023-02-04T16:07:20.990Z,98106.19
2023-02-04T16:09:47.955Z,98117.34
2023-02-04T16:12:14.964Z,98095.38
2023-02-04T16:14:41.980Z,98178.84
2023-02-04T16:17:11.538Z,98142.16
2023-02-04T16:19:38.547Z,98143.44
2023-02-04T16:22:06.519Z,98153.41
2023-02-04T16:24:34.345Z,98193.53
2023-02-04T16:27:01.453Z,98186.63
2023-02-04T16:29:31.198Z,98178.22
2023-02-04T16:32:00.600Z,98187.91
2023-02-04T16:34:28.491Z,98185.09
2023-02-04T16:36:55.543Z,98172.41
2023-02-04T16:39:22.513Z,98177.38
2023-02-04T16:41:49.490Z,98178.72
2023-02-04T16:44:16.470Z,98174.09
2023-02-04T16:46:43.593Z,98163.53
2023-02-04T16:49:10.577Z,98175.88
2023-02-04T16:51:37.646Z,98184.56
2023-02-04T16:54:04.765Z,98214.09
2023-02-04T16:56:35.791Z,98190.22
2023-02-04T16:59:03.536Z,98227.19
2023-02-04T17:01:31.083Z,98225.88
2023-02-04T17:04:01.315Z,98220.03
2023-02-04T17:06:32.887Z,98234.72
2023-02-04T17:09:00.006Z,98259.72
2023-02-04T17:11:29.888Z,98258.34
2023-02-04T17:14:07.090Z,98229.00
2023-02-04T17:16:37.325Z,98246.59
2023-02-04T17:19:05.762Z,98277.69
2023-02-04T17:21:35.177Z,98211.13
2023-02-04T17:24:04.254Z,98284.56
2023-02-04T17:26:37.427Z,98264.59
2023-02-04T17:29:07.176Z,98269.00
2023-02-04T17:31:34.702Z,98276.13
2023-02-04T17:34:03.374Z,98249.91
2023-02-04T17:36:31.439Z,98250.00
2023-02-04T17:38:58.659Z,98242.44
2023-02-04T17:41:28.258Z,98257.56
2023-02-04T17:43:55.333Z,98259.59
2023-02-04T17:46:22.558Z,98268.44
2023-02-04T17:48:49.585Z,98271.19
2023-02-04T17:51:17.221Z,98264.31
2023-02-04T17:53:46.596Z,98268.88
2023-02-04T17:56:14.802Z,98252.97
2023-02-04T17:58:42.454Z,98257.69
2023-02-04T18:01:15.732Z,98280.50
2023-02-04T18:03:43.262Z,98301.22
2023-02-04T18:06:29.178Z,98293.16
2023-02-04T18:09:01.779Z,98296.69
2023-02-04T18:11:36.187Z,98303.53
2023-02-04T18:14:17.104Z,98307.25
2023-02-04T18:16:44.776Z,98303.16
2023-02-04T18:19:22.492Z,98326.03
2023-02-04T18:21:49.956Z,98314.72
2023-02-04T18:24:30.387Z,98309.25
2023-02-04T18:27:01.941Z,98318.78
2023-02-04T18:29:35.779Z,98311.53
2023-02-04T18:32:14.371Z,98337.75
2023-02-04T18:34:44.615Z,98342.69
2023-02-04T18:37:29.694Z,98345.78
2023-02-04T18:40:11.877Z,98349.56
2023-02-04T18:42:41.552Z,98348.53
2023-02-04T18:45:27.158Z,98356.16
2023-02-04T18:47:56.412Z,98323.91
2023-02-04T18:50:30.110Z,98357.78
2023-02-04T18:53:16.604Z,98339.44
2023-02-04T18:55:49.138Z,98348.31
2023-02-04T18:58:19.182Z,98344.38
2023-02-04T19:00:52.279Z,98342.97
2023-02-04T19:03:30.986Z,98345.38
2023-02-04T19:06:00.503Z,98365.00
2023-02-04T19:08:49.059Z,98364.00
2023-02-04T19:11:36.297Z,98369.66
2023-02-04T19:14:37.687Z,98375.00
2023-02-04T19:17:26.185Z,98364.94
2023-02-04T19:20:00.760Z,98370.75
2023-02-04T19:22:52.250Z,98388.06
2023-02-04T19:25:41.144Z,98395.16
2023-02-04T19:28:37.340Z,98387.38
2023-02-04T19:31:07.931Z,98394.72
2023-02-04T19:33:40.161Z,98385.53
2023-02-04T19:36:27.479Z,98379.63
2023-02-04T19:39:03.783Z,98400.09
2023-02-04T19:42:19.517Z,98416.88
2023-02-04T19:44:46.816Z,98428.81
2023-02-04T19:47:25.685Z,98434.56
2023-02-04T19:50:01.988Z,98422.78
2023-02-04T19:52:37.649Z,98434.13
2023-02-04T19:55:16.838Z,98437.88
2023-02-04T19:57:52.189Z,98440.00
2023-02-04T20:00:35.717Z,98424.22
2023-02-04T20:03:28.280Z,98448.31
2023-02-04T20:06:01.085Z,98434.94
2023-02-04T20:08:46.635Z,98449.16
2023-02-04T20:11:28.475Z,98450.53
2023-02-04T20:14:02.329Z,98455.81
2023-02-04T20:16:39.676Z,98459.03
2023-02-04T20:19:21.142Z,98454.81
2023-02-04T20:22:19.260Z,98469.06
2023-02-04T20:24:46.438Z,98461.25
2023-02-04T20:27:23.467Z,98466.53
2023-02-04T20:29:58.716Z,98458.16
2023-02-04T20:32:27.617Z,98458.00
2023-02-04T20:35:21.484Z,98440.50
2023-02-04T20:37:53.735Z,98467.13
2023-02-04T20:40:30.083Z,98473.38
2023-02-04T20:43:02.299Z,98460.59
2023-02-04T20:45:41.182Z,98471.13
2023-02-04T20:48:18.013Z,98477.50
2023-02-04T20:50:53.280Z,98523.63
2023-02-04T20:53:30.248Z,98475.81
2023-02-04T20:56:07.082Z,98462.28
2023-02-04T20:58:39.920Z,98410.00
2023-02-04T21:01:34.186Z,98460.50
2023-02-04T21:04:16.232Z,98482.28
2023-02-04T21:06:43.728Z,98518.06
2023-02-04T21:09:23.974Z,98464.75
2023-02-04T21:11:53.205Z,98471.16
2023-02-04T21:14:20.895Z,98514.03
2023-02-04T21:16:58.216Z,98498.59
2023-02-04T21:19:28.491Z,98511.00
2023-02-04T21:21:57.553Z,98487.75
2023-02-04T21:24:26.745Z,98505.25
2023-02-04T21:26:53.999Z,98495.22
2023-02-04T21:29:21.519Z,98549.75
2023-02-04T21:31:48.830Z,98486.50
2023-02-04T21:34:16.808Z,98495.63
2023-02-04T21:36:43.770Z,98505.81
2023-02-04T21:39:11.575Z,98520.16
2023-02-04T21:41:38.529Z,98500.56
2023-02-04T21:44:05.877Z,98515.72
2023-02-04T21:46:33.532Z,98514.88
2023-02-04T21:49:05.478Z,98527.66
2023-02-04T21:51:32.721Z,98526.25
2023-02-04T21:54:01.345Z,98528.69
2023-02-04T21:56:28.685Z,98542.97
2023-02-04T21:58:56.858Z,98544.81
2023-02-04T22:01:24.167Z,98550.38
2023-02-04T22:03:51.175Z,98561.19
2023-02-04T22:06:18.780Z,98577.63
2023-02-04T22:08:45.738Z,98585.81
2023-02-04T22:11:13.030Z,98558.75
2023-02-04T22:13:40.203Z,98556.09
2023-02-04T22:16:08.025Z,98567.28
2023-02-04T22:18:35.090Z,98604.03
2023-02-04T22:21:02.162Z,98578.66
2023-02-04T22:23:29.105Z,98587.75
2023-02-04T22:25:56.200Z,98581.72
2023-02-04T22:28:23.194Z,98609.75
2023-02-04T22:30:54.229Z,98584.06
2023-02-04T22:33:21.557Z,98609.88
2023-02-04T22:35:48.780Z,98569.91
2023-02-04T22:38:20.318Z,98574.47
2023-02-04T22:40:50.300Z,98601.66
2023-02-04T22:43:17.325Z,98600.75
2023-02-04T22:45:44.398Z,98603.47
2023-02-04T22:48:12.052Z,98611.50
2023-02-04T22:50:41.567Z,98612.88
2023-02-04T22:53:08.738Z,98611.59
2023-02-04T22:55:36.553Z,98603.47
2023-02-04T22:58:03.533Z,98604.38
2023-02-04T23:00:31.064Z,98596.09
2023-02-04T23:02:58.301Z,98603.16
2023-02-04T23:05:25.684Z,98580.59
2023-02-04T23:07:52.643Z,98596.34
2023-02-04T23:10:20.318Z,98585.44
2023-02-04T23:12:47.328Z,98581.31
2023-02-04T23:15:17.870Z,98582.84
2023-02-04T23:17:45.566Z,98572.75
2023-02-04T23:20:12.611Z,98597.81
2023-02-04T23:22:40.203Z,98585.44
2023-02-04T23:25:08.167Z,98581.91
2023-02-04T23:27:35.536Z,98579.25
2023-02-04T23:30:04.537Z,98585.75
2023-02-04T23:32:31.933Z,98571.84
2023-02-04T23:34:59.442Z,98594.03
2023-02-04T23:37:26.397Z,98596.91
2023-02-04T23:39:54.174Z,98593.63
2023-02-04T23:42:21.231Z,98592.41
2023-02-04T23:44:48.463Z,98589.00
2023-02-04T23:47:15.922Z,98591.78
2023-02-04T23:49:43.184Z,98599.03
2023-02-04T23:52:10.131Z,98629.47
2023-02-04T23:54:37.668Z,98627.13
2023-02-04T23:57:04.688Z,98640.38
2023-02-04T23:59:32.523Z,98622.97
